createdAt,value
2022-11-03T00:01:51.430Z,100252.06
2022-11-03T00:04:20.601Z,100257.91
2022-11-03T00:06:49.882Z,100258.91
2022-11-03T00:09:18.592Z,100252.75
2022-11-03T00:11:47.539Z,100259.84
2022-11-03T00:14:15.439Z,100259.22
2022-11-03T00:16:43.710Z,100253.94
2022-11-03T00:19:11.913Z,100255.56
2022-11-03T00:21:39.498Z,100257.25
2022-11-03T00:24:07.305Z,100259.53
2022-11-03T00:26:36.279Z,100268.63
2022-11-03T00:29:11.590Z,100262.09
2022-11-03T00:31:40.773Z,100262.06
2022-11-03T00:34:09.269Z,100264.69
2022-11-03T00:36:48.858Z,100259.62
2022-11-03T00:39:17.071Z,100255.75
2022-11-03T00:41:44.689Z,100257.63
2022-11-03T00:44:13.651Z,100253.59
2022-11-03T00:46:41.706Z,100251.00
2022-11-03T00:49:12.443Z,100258.16
2022-11-03T00:51:40.164Z,100263.63
2022-11-03T00:54:08.618Z,100263.69
2022-11-03T00:56:40.779Z,100253.59
2022-11-03T00:59:09.693Z,100264.41
2022-11-03T01:01:45.381Z,100257.47
2022-11-03T01:04:34.787Z,100267.03
2022-11-03T01:07:06.360Z,100269.81
2022-11-03T01:09:38.501Z,100265.22
2022-11-03T01:12:17.156Z,100261.25
2022-11-03T01:14:45.224Z,100265.41
2022-11-03T01:17:13.656Z,100257.44
2022-11-03T01:19:44.808Z,100247.63
2022-11-03T01:22:13.318Z,100250.34
2022-11-03T01:24:43.941Z,100245.94
2022-11-03T01:27:13.486Z,100250.34
2022-11-03T01:29:42.089Z,100249.47
2022-11-03T01:32:10.419Z,100246.78
2022-11-03T01:34:38.446Z,100245.50
2022-11-03T01:37:06.606Z,100242.91
2022-11-03T01:39:34.507Z,100249.38
2022-11-03T01:42:05.426Z,100247.59
2022-11-03T01:44:37.345Z,100255.72
2022-11-03T01:47:11.121Z,100250.94
2022-11-03T01:49:49.216Z,100244.72
2022-11-03T01:52:26.381Z,100250.66
2022-11-03T01:55:00.081Z,100257.22
2022-11-03T01:57:36.900Z,100256.72
2022-11-03T02:00:08.739Z,100258.63
2022-11-03T02:02:40.707Z,100261.13
2022-11-03T02:05:13.241Z,100261.69
2022-11-03T02:07:53.932Z,100261.97
2022-11-03T02:10:23.088Z,100259.00
2022-11-03T02:12:51.167Z,100258.41
2022-11-03T02:15:21.823Z,100255.03
2022-11-03T02:17:54.250Z,100259.34
2022-11-03T02:20:29.982Z,100267.37
2022-11-03T02:22:57.559Z,100267.13
2022-11-03T02:25:41.852Z,100261.34
2022-11-03T02:28:14.009Z,100267.56
2022-11-03T02:30:48.485Z,100268.56
2022-11-03T02:33:39.223Z,100272.78
2022-11-03T02:36:12.270Z,100280.03
2022-11-03T02:38:54.559Z,100278.00
2022-11-03T02:41:23.499Z,100281.34
2022-11-03T02:43:51.472Z,100279.56
2022-11-03T02:46:19.873Z,100278.78
2022-11-03T02:48:48.234Z,100283.06
2022-11-03T02:51:16.219Z,100290.41
2022-11-03T02:53:53.299Z,100284.34
2022-11-03T02:56:22.323Z,100289.22
2022-11-03T02:58:53.192Z,100288.84
2022-11-03T03:01:52.943Z,100283.03
2022-11-03T03:04:20.656Z,100284.31
2022-11-03T03:06:56.148Z,100286.88
2022-11-03T03:09:28.866Z,100289.44
2022-11-03T03:11:59.514Z,100281.78
2022-11-03T03:14:38.463Z,100282.56
2022-11-03T03:17:13.524Z,100282.53
2022-11-03T03:19:41.108Z,100277.37
2022-11-03T03:22:38.128Z,100279.94
2022-11-03T03:25:17.933Z,100285.84
2022-11-03T03:27:53.099Z,100286.84
2022-11-03T03:30:20.868Z,100293.31
2022-11-03T03:32:52.949Z,100287.19
2022-11-03T03:35:23.371Z,100287.47
2022-11-03T03:37:53.770Z,100290.19
2022-11-03T03:40:23.531Z,100290.25
2022-11-03T03:42:52.206Z,100293.75
2022-11-03T03:45:21.085Z,100283.09
2022-11-03T03:47:49.958Z,100278.88
2022-11-03T03:50:20.727Z,100289.75
2022-11-03T03:52:49.584Z,100292.94
2022-11-03T03:55:18.655Z,100284.34
2022-11-03T03:57:46.735Z,100284.34
2022-11-03T04:00:16.358Z,100290.16
2022-11-03T04:02:44.401Z,100291.09
2022-11-03T04:05:12.093Z,100292.16
2022-11-03T04:07:48.857Z,100291.31
2022-11-03T04:10:21.285Z,100293.69
2022-11-03T04:13:10.441Z,100287.69
2022-11-03T04:15:53.529Z,100288.84
2022-11-03T04:18:40.665Z,100296.12
2022-11-03T04:21:29.223Z,100293.09
2022-11-03T04:23:57.047Z,100299.75
2022-11-03T04:26:25.169Z,100293.28
2022-11-03T04:28:53.460Z,100305.69
2022-11-03T04:31:24.213Z,100290.19
2022-11-03T04:33:54.449Z,100297.28
2022-11-03T04:36:23.079Z,100299.66
2022-11-03T04:38:51.551Z,100300.63
2022-11-03T04:41:28.722Z,100298.16
2022-11-03T04:43:59.595Z,100300.63
2022-11-03T04:46:28.596Z,100295.16
2022-11-03T04:49:01.097Z,100305.44
2022-11-03T04:51:31.538Z,100294.69
2022-11-03T04:54:02.801Z,100297.87
2022-11-03T04:56:31.103Z,100302.75
2022-11-03T04:58:58.842Z,100298.16
2022-11-03T05:01:27.855Z,100303.44
2022-11-03T05:03:56.288Z,100306.84
2022-11-03T05:06:26.831Z,100299.94
2022-11-03T05:08:59.036Z,100299.13
2022-11-03T05:11:32.574Z,100307.38
2022-11-03T05:14:05.038Z,100314.25
2022-11-03T05:16:33.154Z,100316.69
2022-11-03T05:19:01.003Z,100312.63
2022-11-03T05:21:29.431Z,100316.62
2022-11-03T05:24:06.722Z,100316.59
2022-11-03T05:26:35.629Z,100309.81
2022-11-03T05:29:09.776Z,100304.81
2022-11-03T05:31:37.561Z,100314.84
2022-11-03T05:37:36.392Z,100309.34
2022-11-03T05:40:19.928Z,100323.44
2022-11-03T05:43:12.149Z,100318.37
2022-11-03T05:45:40.567Z,100315.19
2022-11-03T05:48:14.827Z,100317.25
2022-11-03T05:50:47.027Z,100313.88
2022-11-03T05:53:27.424Z,100316.56
2022-11-03T05:55:56.098Z,100319.84
2022-11-03T05:58:29.521Z,100329.25
2022-11-03T06:04:24.787Z,100327.66
2022-11-03T06:06:59.281Z,100320.59
2022-11-03T06:09:27.747Z,100316.81
2022-11-03T06:11:57.247Z,100311.22
2022-11-03T06:14:25.865Z,100323.84
2022-11-03T06:16:59.864Z,100320.16
2022-11-03T06:19:29.765Z,100326.53
2022-11-03T06:21:59.421Z,100324.31
2022-11-03T06:24:29.450Z,100326.28
2022-11-03T06:26:58.713Z,100319.88
2022-11-03T06:29:26.578Z,100331.94
2022-11-03T06:31:56.558Z,100322.44
2022-11-03T06:34:42.966Z,100324.78
2022-11-03T06:37:19.932Z,100311.81
2022-11-03T06:39:48.754Z,100317.91
2022-11-03T06:42:20.064Z,100327.09
2022-11-03T06:44:49.944Z,100323.22
2022-11-03T06:47:24.757Z,100329.03
2022-11-03T06:49:54.308Z,100331.16
2022-11-03T06:52:32.040Z,100331.78
2022-11-03T06:55:13.690Z,100328.34
2022-11-03T06:57:46.008Z,100332.50
2022-11-03T07:00:40.172Z,100331.81
2022-11-03T07:03:24.285Z,100329.78
2022-11-03T07:05:56.153Z,100339.47
2022-11-03T07:08:25.553Z,100338.91
2022-11-03T07:11:16.513Z,100340.47
2022-11-03T07:13:45.705Z,100336.69
2022-11-03T07:16:19.554Z,100338.72
2022-11-03T07:18:47.960Z,100334.09
2022-11-03T07:21:22.834Z,100341.16
2022-11-03T07:23:50.646Z,100337.88
2022-11-03T07:26:18.968Z,100332.50
2022-11-03T07:28:48.709Z,100340.22
2022-11-03T07:31:26.381Z,100333.91
2022-11-03T07:33:58.995Z,100340.62
2022-11-03T07:36:29.624Z,100346.53
2022-11-03T07:38:59.845Z,100347.00
2022-11-03T07:41:32.864Z,100339.34
2022-11-03T07:44:02.985Z,100351.31
2022-11-03T07:46:31.278Z,100338.84
2022-11-03T07:48:59.480Z,100348.72
2022-11-03T07:51:35.577Z,100349.06
2022-11-03T07:54:10.553Z,100346.66
2022-11-03T07:56:40.550Z,100345.37
2022-11-03T07:59:11.760Z,100360.59
2022-11-03T08:01:44.503Z,100351.44
2022-11-03T08:04:23.092Z,100356.66
2022-11-03T08:06:50.732Z,100355.31
2022-11-03T08:09:19.269Z,100353.28
2022-11-03T08:11:47.342Z,100348.03
2022-11-03T08:14:15.027Z,100348.22
2022-11-03T08:16:43.050Z,100358.44
2022-11-03T08:19:10.635Z,100355.84
2022-11-03T08:21:38.303Z,100354.06
2022-11-03T08:24:06.673Z,100348.63
2022-11-03T08:26:34.239Z,100348.81
2022-11-03T08:29:01.888Z,100346.91
2022-11-03T08:31:29.785Z,100346.63
2022-11-03T08:33:57.478Z,100338.41
2022-11-03T08:36:25.152Z,100354.75
2022-11-03T08:38:53.104Z,100341.47
2022-11-03T08:41:20.695Z,100347.91
2022-11-03T08:43:48.262Z,100334.22
2022-11-03T08:46:17.964Z,100333.66
2022-11-03T08:48:49.820Z,100341.34
2022-11-03T08:51:20.095Z,100330.75
2022-11-03T08:53:50.902Z,100341.28
2022-11-03T08:56:21.956Z,100347.94
2022-11-03T08:58:55.767Z,100342.31
2022-11-03T09:01:29.310Z,100345.50
2022-11-03T09:03:57.724Z,100337.66
2022-11-03T09:06:25.832Z,100335.56
2022-11-03T09:11:36.119Z,100330.09
2022-11-03T09:14:04.497Z,100332.88
2022-11-03T09:16:32.062Z,100326.13
2022-11-03T09:19:00.047Z,100318.72
2022-11-03T09:21:33.570Z,100318.84
2022-11-03T09:24:01.468Z,100321.63
2022-11-03T09:29:17.689Z,100333.72
2022-11-03T09:31:46.079Z,100329.22
2022-11-03T09:34:20.976Z,100330.44
2022-11-03T09:36:53.079Z,100327.78
2022-11-03T09:39:21.227Z,100315.34
2022-11-03T09:42:01.672Z,100314.00
2022-11-03T09:44:29.713Z,100318.87
2022-11-03T09:46:58.632Z,100321.87
2022-11-03T09:49:26.755Z,100313.53
2022-11-03T09:51:56.236Z,100318.91
2022-11-03T09:57:14.026Z,100319.19
2022-11-03T09:59:43.837Z,100312.38
2022-11-03T10:02:31.764Z,100313.19
2022-11-03T10:05:08.242Z,100319.53
2022-11-03T10:07:36.611Z,100319.97
2022-11-03T10:10:05.065Z,100314.44
2022-11-03T10:12:35.886Z,100314.81
2022-11-03T10:15:03.765Z,100317.75
2022-11-03T10:17:31.467Z,100315.00
2022-11-03T10:20:01.444Z,100321.72
2022-11-03T10:22:29.824Z,100316.16
2022-11-03T10:25:16.139Z,100324.56
2022-11-03T10:27:43.993Z,100321.94
2022-11-03T10:30:12.886Z,100320.31
2022-11-03T10:32:41.788Z,100322.37
2022-11-03T10:35:29.983Z,100326.47
2022-11-03T10:37:57.685Z,100325.63
2022-11-03T10:40:47.689Z,100326.00
2022-11-03T10:43:16.158Z,100329.06
2022-11-03T10:45:44.151Z,100331.25
2022-11-03T10:48:11.742Z,100326.44
2022-11-03T10:50:42.827Z,100329.66
2022-11-03T10:53:17.069Z,100325.63
2022-11-03T10:55:44.823Z,100321.94
2022-11-03T10:58:12.762Z,100319.50
2022-11-03T11:00:43.518Z,100313.78
2022-11-03T11:03:16.352Z,100325.66
2022-11-03T11:05:48.747Z,100318.53
2022-11-03T11:08:19.905Z,100316.56
2022-11-03T11:10:48.065Z,100316.88
2022-11-03T11:13:15.792Z,100308.66
2022-11-03T11:15:45.151Z,100316.22
2022-11-03T11:18:33.355Z,100321.25
2022-11-03T11:21:01.713Z,100319.78
2022-11-03T11:23:29.700Z,100310.75
2022-11-03T11:26:09.517Z,100312.88
2022-11-03T11:28:38.654Z,100324.87
2022-11-03T11:31:35.407Z,100323.81
2022-11-03T11:34:18.672Z,100319.72
2022-11-03T11:36:47.760Z,100317.72
2022-11-03T11:39:15.631Z,100318.84
2022-11-03T11:42:02.004Z,100317.94
2022-11-03T11:44:53.147Z,100320.16
2022-11-03T11:47:32.741Z,100327.94
2022-11-03T11:50:20.991Z,100323.47
2022-11-03T11:52:54.302Z,100328.50
2022-11-03T11:55:22.221Z,100325.81
2022-11-03T11:57:49.925Z,100325.94
2022-11-03T12:00:26.035Z,100325.13
2022-11-03T12:02:54.560Z,100324.34
2022-11-03T12:05:28.322Z,100327.19
2022-11-03T12:07:56.341Z,100322.03
2022-11-03T12:10:26.635Z,100329.22
2022-11-03T12:12:55.238Z,100325.53
2022-11-03T12:15:41.840Z,100331.66
2022-11-03T12:18:28.402Z,100328.50
2022-11-03T12:20:57.026Z,100339.53
2022-11-03T12:23:35.964Z,100343.13
2022-11-03T12:26:05.577Z,100333.72
2022-11-03T12:28:37.823Z,100342.25
2022-11-03T12:31:05.852Z,100338.34
2022-11-03T12:33:33.456Z,100344.88
2022-11-03T12:36:01.010Z,100350.41
2022-11-03T12:38:29.005Z,100343.72
2022-11-03T12:40:56.653Z,100334.38
2022-11-03T12:43:24.198Z,100332.94
2022-11-03T12:45:52.711Z,100344.06
2022-11-03T12:48:20.345Z,100342.94
2022-11-03T12:50:47.868Z,100335.50
2022-11-03T12:53:15.727Z,100337.75
2022-11-03T12:55:44.795Z,100333.84
2022-11-03T12:58:12.632Z,100340.09
2022-11-03T13:00:40.675Z,100341.47
2022-11-03T13:03:08.656Z,100335.75
2022-11-03T13:05:36.546Z,100346.22
2022-11-03T13:08:04.717Z,100341.75
2022-11-03T13:10:32.429Z,100347.97
2022-11-03T13:13:00.032Z,100351.50
2022-11-03T13:15:28.047Z,100350.59
2022-11-03T13:18:13.062Z,100348.97
2022-11-03T13:23:28.150Z,100355.16
2022-11-03T13:25:56.642Z,100362.78
2022-11-03T13:28:24.483Z,100351.63
2022-11-03T13:30:52.157Z,100357.06
2022-11-03T13:33:21.055Z,100356.81
2022-11-03T13:35:48.847Z,100354.41
2022-11-03T13:38:16.430Z,100355.41
2022-11-03T13:41:05.337Z,100353.38
2022-11-03T13:43:32.159Z,100349.88
2022-11-03T13:46:02.841Z,100349.66
2022-11-03T13:49:27.745Z,100352.47
2022-11-03T13:51:23.518Z,100344.28
2022-11-03T13:59:28.145Z,100348.97
2022-11-03T14:04:45.135Z,100352.47
2022-11-03T14:07:13.066Z,100348.50
2022-11-03T14:09:40.847Z,100348.69
2022-11-03T14:12:27.530Z,100353.72
2022-11-03T14:14:55.124Z,100354.97
2022-11-03T14:17:23.146Z,100354.09
2022-11-03T14:19:53.097Z,100358.87
2022-11-03T14:22:22.144Z,100361.00
2022-11-03T14:24:50.818Z,100363.44
2022-11-03T14:27:19.153Z,100366.84
2022-11-03T14:29:50.035Z,100368.75
2022-11-03T14:32:18.683Z,100370.66
2022-11-03T14:34:46.155Z,100367.75
2022-11-03T14:37:13.709Z,100362.22
2022-11-03T14:39:41.663Z,100366.06
2022-11-03T14:42:15.801Z,100367.25
2022-11-03T14:44:45.009Z,100369.03
2022-11-03T14:47:18.138Z,100362.87
2022-11-03T14:49:46.738Z,100367.09
2022-11-03T14:52:15.451Z,100362.53
2022-11-03T14:54:43.498Z,100364.50
2022-11-03T14:57:11.402Z,100364.81
2022-11-03T14:59:42.225Z,100360.72
2022-11-03T15:02:10.244Z,100354.94
2022-11-03T15:04:38.246Z,100369.47
2022-11-03T15:07:05.703Z,100367.84
2022-11-03T15:09:33.121Z,100368.09
2022-11-03T15:12:01.187Z,100365.22
2022-11-03T15:14:30.196Z,100371.03
2022-11-03T15:16:57.850Z,100361.66
2022-11-03T15:19:25.748Z,100365.84
2022-11-03T15:21:53.261Z,100360.50
2022-11-03T15:27:08.886Z,100360.03
2022-11-03T15:29:37.839Z,100366.09
2022-11-03T15:32:05.451Z,100359.34
2022-11-03T15:34:33.669Z,100368.66
2022-11-03T15:37:01.165Z,100363.22
2022-11-03T15:39:30.082Z,100363.97
2022-11-03T15:42:00.411Z,100369.13
2022-11-03T15:44:28.106Z,100363.22
2022-11-03T15:46:55.609Z,100372.94
2022-11-03T15:49:23.591Z,100370.78
2022-11-03T15:51:51.989Z,100371.47
2022-11-03T15:54:19.514Z,100375.47
2022-11-03T15:56:47.533Z,100369.53
2022-11-03T15:59:15.040Z,100361.00
2022-11-03T16:01:42.903Z,100365.72
2022-11-03T16:04:10.997Z,100375.50
2022-11-03T16:07:07.426Z,100375.25
2022-11-03T16:09:26.828Z,100373.63
2022-11-03T16:11:54.342Z,100377.75
2022-11-03T16:14:21.862Z,100378.94
2022-11-03T16:16:49.944Z,100379.66
2022-11-03T16:19:17.702Z,100373.53
2022-11-03T16:21:45.383Z,100369.66
2022-11-03T16:24:17.158Z,100378.38
2022-11-03T16:26:47.571Z,100385.00
2022-11-03T16:29:15.463Z,100381.38
2022-11-03T16:31:43.145Z,100383.53
2022-11-03T16:34:10.662Z,100380.31
2022-11-03T16:36:38.563Z,100373.47
2022-11-03T16:39:06.101Z,100376.09
2022-11-03T16:41:33.669Z,100369.44
2022-11-03T16:44:01.794Z,100372.97
2022-11-03T16:46:29.395Z,100368.22
2022-11-03T16:48:57.061Z,100374.34
2022-11-03T16:51:25.085Z,100364.09
2022-11-03T16:53:54.925Z,100364.78
2022-11-03T16:56:22.375Z,100362.78
2022-11-03T16:58:50.687Z,100365.38
2022-11-03T17:01:18.955Z,100366.47
2022-11-03T17:03:46.900Z,100366.78
2022-11-03T17:06:17.765Z,100367.62
2022-11-03T17:08:52.997Z,100367.62
2022-11-03T17:11:36.606Z,100372.56
2022-11-03T17:14:14.022Z,100373.78
2022-11-03T17:16:42.878Z,100364.94
2022-11-03T17:19:11.078Z,100363.06
2022-11-03T17:21:38.675Z,100359.22
2022-11-03T17:24:07.066Z,100370.78
2022-11-03T17:26:43.283Z,100365.66
2022-11-03T17:29:13.931Z,100355.63
2022-11-03T17:31:41.709Z,100360.44
2022-11-03T17:34:11.821Z,100363.31
2022-11-03T17:36:42.903Z,100362.22
2022-11-03T17:39:16.229Z,100363.31
2022-11-03T17:41:44.340Z,100364.28
2022-11-03T17:44:13.214Z,100361.81
2022-11-03T17:46:40.974Z,100359.06
2022-11-03T17:49:09.001Z,100359.41
2022-11-03T17:51:41.270Z,100363.88
2022-11-03T17:54:13.673Z,100361.44
2022-11-03T17:56:41.179Z,100355.09
2022-11-03T17:59:09.713Z,100353.34
2022-11-03T18:01:37.883Z,100356.50
2022-11-03T18:06:48.064Z,100358.28
2022-11-03T18:09:16.493Z,100350.16
2022-11-03T18:12:02.892Z,100353.97
2022-11-03T18:14:30.986Z,100351.91
2022-11-03T18:16:58.625Z,100352.37
2022-11-03T18:19:26.343Z,100359.09
2022-11-03T18:21:54.265Z,100364.25
2022-11-03T18:24:22.164Z,100358.81
2022-11-03T18:26:49.820Z,100356.63
2022-11-03T18:29:17.777Z,100360.06
2022-11-03T18:31:51.026Z,100354.78
2022-11-03T18:34:22.573Z,100356.81
2022-11-03T18:36:51.240Z,100351.66
2022-11-03T18:39:23.536Z,100350.97
2022-11-03T18:41:51.518Z,100354.22
2022-11-03T18:44:19.445Z,100357.44
2022-11-03T18:46:47.942Z,100359.06
2022-11-03T18:49:17.061Z,100358.75
2022-11-03T18:51:49.683Z,100356.97
2022-11-03T18:54:22.095Z,100356.38
2022-11-03T18:56:50.884Z,100360.84
2022-11-03T18:59:24.502Z,100358.28
2022-11-03T19:01:53.265Z,100357.34
2022-11-03T19:04:21.490Z,100356.09
2022-11-03T19:06:50.585Z,100357.94
2022-11-03T19:09:26.340Z,100351.94
2022-11-03T19:11:57.015Z,100355.34
2022-11-03T19:14:32.135Z,100352.19
2022-11-03T19:17:21.842Z,100353.72
2022-11-03T19:19:53.398Z,100351.00
2022-11-03T19:22:22.007Z,100345.84
2022-11-03T19:24:49.913Z,100348.63
2022-11-03T19:27:26.074Z,100352.31
2022-11-03T19:29:55.172Z,100346.91
2022-11-03T19:32:25.270Z,100345.00
2022-11-03T19:35:12.924Z,100339.34
2022-11-03T19:37:40.997Z,100340.22
2022-11-03T19:40:12.942Z,100342.00
2022-11-03T19:42:40.958Z,100348.97
2022-11-03T19:45:11.288Z,100340.28
2022-11-03T19:48:10.472Z,100343.22
2022-11-03T19:50:36.808Z,100340.12
2022-11-03T19:53:06.220Z,100337.16
2022-11-03T19:55:35.118Z,100344.38
2022-11-03T19:58:11.429Z,100348.41
2022-11-03T20:00:39.140Z,100346.78
2022-11-03T20:03:07.074Z,100351.59
2022-11-03T20:05:34.906Z,100351.12
2022-11-03T20:08:07.176Z,100351.22
2022-11-03T20:10:39.151Z,100349.59
2022-11-03T20:13:09.239Z,100360.28
2022-11-03T20:15:37.592Z,100357.19
2022-11-03T20:18:06.716Z,100355.69
2022-11-03T20:20:36.607Z,100352.91
2022-11-03T20:23:05.358Z,100360.72
2022-11-03T20:25:35.335Z,100362.63
2022-11-03T20:28:09.442Z,100354.47
2022-11-03T20:30:37.563Z,100355.47
2022-11-03T20:33:10.336Z,100349.84
2022-11-03T20:35:38.443Z,100350.94
2022-11-03T20:38:10.084Z,100351.25
2022-11-03T20:40:38.975Z,100346.50
2022-11-03T20:43:07.746Z,100349.47
2022-11-03T20:45:35.205Z,100346.66
2022-11-03T20:48:03.688Z,100345.00
2022-11-03T20:50:31.921Z,100347.72
2022-11-03T20:52:59.597Z,100347.34
2022-11-03T20:55:27.837Z,100351.66
2022-11-03T20:57:57.639Z,100348.13
2022-11-03T21:00:27.528Z,100348.03
2022-11-03T21:02:56.140Z,100346.38
2022-11-03T21:05:28.627Z,100349.00
2022-11-03T21:07:56.966Z,100348.03
2022-11-03T21:10:24.623Z,100343.13
2022-11-03T21:12:52.458Z,100351.50
2022-11-03T21:15:52.297Z,100344.50
2022-11-03T21:18:44.074Z,100350.44
2022-11-03T21:21:14.584Z,100344.03
2022-11-03T21:23:44.394Z,100347.72
2022-11-03T21:26:13.607Z,100345.56
2022-11-03T21:28:41.344Z,100348.94
2022-11-03T21:31:13.199Z,100337.97
2022-11-03T21:33:41.197Z,100335.47
2022-11-03T21:36:09.613Z,100337.16
2022-11-03T21:38:39.358Z,100336.16
2022-11-03T21:41:27.989Z,100337.66
2022-11-03T21:44:14.654Z,100336.03
2022-11-03T21:46:43.321Z,100338.78
2022-11-03T21:49:30.043Z,100336.09
2022-11-03T21:51:58.256Z,100334.31
2022-11-03T21:54:25.866Z,100334.19
2022-11-03T21:56:53.588Z,100336.47
2022-11-03T21:59:22.011Z,100337.25
2022-11-03T22:01:51.372Z,100332.69
2022-11-03T22:04:19.276Z,100332.94
2022-11-03T22:06:46.876Z,100336.97
2022-11-03T22:09:14.447Z,100337.25
2022-11-03T22:11:42.354Z,100326.28
2022-11-03T22:14:11.284Z,100331.41
2022-11-03T22:16:40.226Z,100323.88
2022-11-03T22:19:40.246Z,100328.28
2022-11-03T22:22:30.404Z,100327.78
2022-11-03T22:25:17.479Z,100330.38
2022-11-03T22:27:45.776Z,100326.66
2022-11-03T22:30:32.022Z,100325.22
2022-11-03T22:32:59.603Z,100326.25
2022-11-03T22:35:45.910Z,100327.88
2022-11-03T22:38:14.473Z,100328.56
2022-11-03T22:41:01.669Z,100321.28
2022-11-03T22:43:47.508Z,100315.66
2022-11-03T22:46:16.589Z,100325.97
2022-11-03T22:48:44.159Z,100325.50
2022-11-03T22:51:13.735Z,100324.84
2022-11-03T22:54:00.966Z,100328.28
2022-11-03T22:56:29.569Z,100326.47
2022-11-03T22:58:57.462Z,100330.22
2022-11-03T23:01:27.124Z,100327.12
2022-11-03T23:03:55.178Z,100328.63
2022-11-03T23:06:24.315Z,100328.63
2022-11-03T23:08:52.417Z,100330.47
2022-11-03T23:11:24.537Z,100335.59
2022-11-03T23:14:11.308Z,100337.28
2022-11-03T23:16:43.380Z,100339.72
2022-11-03T23:19:31.226Z,100338.72
2022-11-03T23:21:59.154Z,100337.09
2022-11-03T23:24:45.855Z,100340.50
2022-11-03T23:27:14.105Z,100337.16
2022-11-03T23:29:41.953Z,100335.59
2022-11-03T23:32:09.517Z,100331.94
2022-11-03T23:34:36.946Z,100331.72
2022-11-03T23:37:04.810Z,100330.50
2022-11-03T23:39:32.240Z,100339.72
2022-11-03T23:42:02.493Z,100335.53
2022-11-03T23:44:50.246Z,100339.72
2022-11-03T23:47:36.448Z,100335.72
2022-11-03T23:50:04.416Z,100340.62
2022-11-03T23:52:31.866Z,100342.13
2022-11-03T23:54:59.301Z,100340.22
2022-11-03T23:57:46.185Z,100335.78
